sensor_id;sensor_type;location;lat;lon;timestamp;P1;durP1;ratioP1;P2;durP2;ratioP2
76795;SDS011;65745;50.278;18.192;2023-11-21T00:00:07;6.90;;;5.60;;
76795;SDS011;65745;50.278;18.192;2023-11-21T00:03:02;6.30;;;4.50;;
76795;SDS011;65745;50.278;18.192;2023-11-21T00:05:36;6.10;;;4.00;;
76795;SDS011;65745;50.278;18.192;2023-11-21T00:08:10;5.20;;;4.00;;
76795;SDS011;65745;50.278;18.192;2023-11-21T00:10:42;4.90;;;4.10;;
76795;SDS011;65745;50.278;18.192;2023-11-21T00:13:14;4.90;;;3.90;;
76795;SDS011;65745;50.278;18.192;2023-11-21T00:15:47;6.00;;;4.50;;
76795;SDS011;65745;50.278;18.192;2023-11-21T00:18:19;5.80;;;4.60;;
76795;SDS011;65745;50.278;18.192;2023-11-21T00:20:51;8.00;;;4.50;;
76795;SDS011;65745;50.278;18.192;2023-11-21T00:23:23;5.30;;;4.50;;
76795;SDS011;65745;50.278;18.192;2023-11-21T00:25:55;6.00;;;4.30;;
76795;SDS011;65745;50.278;18.192;2023-11-21T00:28:27;5.00;;;4.50;;
76795;SDS011;65745;50.278;18.192;2023-11-21T00:30:59;4.00;;;3.60;;
76795;SDS011;65745;50.278;18.192;2023-11-21T00:33:33;6.50;;;4.40;;
76795;SDS011;65745;50.278;18.192;2023-11-21T00:36:06;5.10;;;4.60;;
76795;SDS011;65745;50.278;18.192;2023-11-21T00:38:39;6.20;;;4.00;;
76795;SDS011;65745;50.278;18.192;2023-11-21T00:41:11;7.20;;;5.00;;
76795;SDS011;65745;50.278;18.192;2023-11-21T00:43:43;7.00;;;5.10;;
76795;SDS011;65745;50.278;18.192;2023-11-21T00:46:15;5.70;;;4.90;;
76795;SDS011;65745;50.278;18.192;2023-11-21T00:48:47;5.80;;;5.20;;
76795;SDS011;65745;50.278;18.192;2023-11-21T00:51:19;8.70;;;4.80;;
76795;SDS011;65745;50.278;18.192;2023-11-21T00:53:52;8.10;;;4.90;;
76795;SDS011;65745;50.278;18.192;2023-11-21T00:56:24;5.80;;;4.50;;
76795;SDS011;65745;50.278;18.192;2023-11-21T00:58:56;5.10;;;3.90;;
76795;SDS011;65745;50.278;18.192;2023-11-21T01:01:28;5.70;;;4.30;;
76795;SDS011;65745;50.278;18.192;2023-11-21T01:04:00;6.00;;;4.20;;
76795;SDS011;65745;50.278;18.192;2023-11-21T01:06:32;5.80;;;4.80;;
76795;SDS011;65745;50.278;18.192;2023-11-21T01:09:05;6.30;;;4.50;;
76795;SDS011;65745;50.278;18.192;2023-11-21T01:11:37;5.30;;;4.30;;
76795;SDS011;65745;50.278;18.192;2023-11-21T01:14:09;7.20;;;4.80;;
76795;SDS011;65745;50.278;18.192;2023-11-21T01:16:42;6.40;;;4.50;;
76795;SDS011;65745;50.278;18.192;2023-11-21T01:19:14;5.50;;;4.20;;
76795;SDS011;65745;50.278;18.192;2023-11-21T01:21:47;5.60;;;4.10;;
76795;SDS011;65745;50.278;18.192;2023-11-21T01:24:19;4.60;;;3.50;;
76795;SDS011;65745;50.278;18.192;2023-11-21T01:26:51;5.00;;;4.10;;
76795;SDS011;65745;50.278;18.192;2023-11-21T01:29:23;5.40;;;3.80;;
76795;SDS011;65745;50.278;18.192;2023-11-21T01:31:55;5.90;;;3.60;;
76795;SDS011;65745;50.278;18.192;2023-11-21T01:34:27;6.00;;;3.90;;
76795;SDS011;65745;50.278;18.192;2023-11-21T01:37:00;6.10;;;4.60;;
76795;SDS011;65745;50.278;18.192;2023-11-21T01:39:33;5.10;;;4.20;;
76795;SDS011;65745;50.278;18.192;2023-11-21T01:42:08;5.80;;;4.70;;
76795;SDS011;65745;50.278;18.192;2023-11-21T01:44:42;5.10;;;4.50;;
76795;SDS011;65745;50.278;18.192;2023-11-21T01:47:15;7.80;;;4.60;;
76795;SDS011;65745;50.278;18.192;2023-11-21T01:49:48;8.80;;;4.70;;
76795;SDS011;65745;50.278;18.192;2023-11-21T01:52:20;7.00;;;4.70;;
76795;SDS011;65745;50.278;18.192;2023-11-21T01:54:56;6.10;;;5.00;;
76795;SDS011;65745;50.278;18.192;2023-11-21T01:57:29;7.20;;;5.30;;
76795;SDS011;65745;50.278;18.192;2023-11-21T02:00:02;7.30;;;5.20;;
76795;SDS011;65745;50.278;18.192;2023-11-21T02:02:44;7.10;;;4.80;;
76795;SDS011;65745;50.278;18.192;2023-11-21T02:05:17;6.90;;;5.80;;
76795;SDS011;65745;50.278;18.192;2023-11-21T02:07:50;6.50;;;5.20;;
76795;SDS011;65745;50.278;18.192;2023-11-21T02:10:22;6.70;;;5.10;;
76795;SDS011;65745;50.278;18.192;2023-11-21T02:12:54;5.60;;;4.60;;
76795;SDS011;65745;50.278;18.192;2023-11-21T02:15:27;6.70;;;5.20;;
76795;SDS011;65745;50.278;18.192;2023-11-21T02:18:00;5.50;;;4.80;;
76795;SDS011;65745;50.278;18.192;2023-11-21T02:20:35;6.30;;;4.60;;
76795;SDS011;65745;50.278;18.192;2023-11-21T02:23:10;7.20;;;5.00;;
76795;SDS011;65745;50.278;18.192;2023-11-21T02:25:43;7.00;;;4.90;;
76795;SDS011;65745;50.278;18.192;2023-11-21T02:28:18;5.30;;;4.40;;
76795;SDS011;65745;50.278;18.192;2023-11-21T02:30:55;6.10;;;4.80;;
76795;SDS011;65745;50.278;18.192;2023-11-21T02:33:28;6.80;;;5.00;;
76795;SDS011;65745;50.278;18.192;2023-11-21T02:36:03;6.00;;;4.90;;
76795;SDS011;65745;50.278;18.192;2023-11-21T02:38:36;7.40;;;5.90;;
76795;SDS011;65745;50.278;18.192;2023-11-21T02:41:08;6.60;;;5.90;;
76795;SDS011;65745;50.278;18.192;2023-11-21T02:43:40;6.60;;;5.80;;
76795;SDS011;65745;50.278;18.192;2023-11-21T02:46:12;7.50;;;6.10;;
76795;SDS011;65745;50.278;18.192;2023-11-21T02:48:44;9.90;;;6.30;;
76795;SDS011;65745;50.278;18.192;2023-11-21T02:51:16;7.80;;;5.90;;
76795;SDS011;65745;50.278;18.192;2023-11-21T02:53:48;9.50;;;7.10;;
76795;SDS011;65745;50.278;18.192;2023-11-21T02:56:21;10.30;;;7.20;;
76795;SDS011;65745;50.278;18.192;2023-11-21T02:58:54;13.00;;;7.30;;
76795;SDS011;65745;50.278;18.192;2023-11-21T03:01:27;11.10;;;7.80;;
76795;SDS011;65745;50.278;18.192;2023-11-21T03:04:00;10.30;;;6.90;;
76795;SDS011;65745;50.278;18.192;2023-11-21T03:06:32;8.50;;;6.50;;
76795;SDS011;65745;50.278;18.192;2023-11-21T03:09:04;12.10;;;6.60;;
76795;SDS011;65745;50.278;18.192;2023-11-21T03:11:36;9.50;;;7.70;;
76795;SDS011;65745;50.278;18.192;2023-11-21T03:14:09;10.60;;;7.30;;
76795;SDS011;65745;50.278;18.192;2023-11-21T03:16:40;9.80;;;7.50;;
76795;SDS011;65745;50.278;18.192;2023-11-21T03:19:14;11.50;;;6.50;;
76795;SDS011;65745;50.278;18.192;2023-11-21T03:21:46;8.50;;;6.50;;
76795;SDS011;65745;50.278;18.192;2023-11-21T03:24:19;6.90;;;6.20;;
76795;SDS011;65745;50.278;18.192;2023-11-21T03:26:51;7.40;;;4.90;;
76795;SDS011;65745;50.278;18.192;2023-11-21T03:29:23;6.60;;;5.60;;
76795;SDS011;65745;50.278;18.192;2023-11-21T03:31:55;7.80;;;5.00;;
76795;SDS011;65745;50.278;18.192;2023-11-21T03:34:27;7.80;;;5.40;;
76795;SDS011;65745;50.278;18.192;2023-11-21T03:36:59;10.00;;;5.70;;
76795;SDS011;65745;50.278;18.192;2023-11-21T03:39:32;7.40;;;6.10;;
76795;SDS011;65745;50.278;18.192;2023-11-21T03:42:04;7.20;;;5.20;;
76795;SDS011;65745;50.278;18.192;2023-11-21T03:44:36;7.90;;;5.60;;
76795;SDS011;65745;50.278;18.192;2023-11-21T03:47:08;7.80;;;6.10;;
76795;SDS011;65745;50.278;18.192;2023-11-21T03:49:41;8.30;;;5.80;;
76795;SDS011;65745;50.278;18.192;2023-11-21T03:52:16;6.90;;;5.40;;
76795;SDS011;65745;50.278;18.192;2023-11-21T03:54:48;7.30;;;6.00;;
76795;SDS011;65745;50.278;18.192;2023-11-21T03:57:20;8.80;;;7.10;;
76795;SDS011;65745;50.278;18.192;2023-11-21T03:59:52;90.30;;;36.70;;
76795;SDS011;65745;50.278;18.192;2023-11-21T04:02:24;98.60;;;38.70;;
76795;SDS011;65745;50.278;18.192;2023-11-21T04:04:57;151.80;;;56.40;;
76795;SDS011;65745;50.278;18.192;2023-11-21T04:07:30;131.30;;;49.70;;
76795;SDS011;65745;50.278;18.192;2023-11-21T04:10:02;140.00;;;48.90;;
76795;SDS011;65745;50.278;18.192;2023-11-21T04:12:36;84.10;;;38.60;;
76795;SDS011;65745;50.278;18.192;2023-11-21T04:15:09;55.10;;;33.70;;
76795;SDS011;65745;50.278;18.192;2023-11-21T04:17:42;106.10;;;54.40;;
76795;SDS011;65745;50.278;18.192;2023-11-21T04:20:15;59.50;;;32.80;;
76795;SDS011;65745;50.278;18.192;2023-11-21T04:22:47;18.00;;;10.50;;
76795;SDS011;65745;50.278;18.192;2023-11-21T04:25:19;13.60;;;9.90;;
76795;SDS011;65745;50.278;18.192;2023-11-21T04:27:52;13.00;;;8.80;;
76795;SDS011;65745;50.278;18.192;2023-11-21T04:30:24;13.20;;;8.40;;
76795;SDS011;65745;50.278;18.192;2023-11-21T04:32:56;8.40;;;6.20;;
76795;SDS011;65745;50.278;18.192;2023-11-21T04:35:28;9.60;;;6.40;;
76795;SDS011;65745;50.278;18.192;2023-11-21T04:38:00;8.00;;;6.60;;
76795;SDS011;65745;50.278;18.192;2023-11-21T04:40:32;9.50;;;7.30;;
76795;SDS011;65745;50.278;18.192;2023-11-21T04:43:04;11.50;;;8.60;;
76795;SDS011;65745;50.278;18.192;2023-11-21T04:45:36;13.90;;;9.10;;
76795;SDS011;65745;50.278;18.192;2023-11-21T04:48:10;10.00;;;7.20;;
76795;SDS011;65745;50.278;18.192;2023-11-21T04:50:43;9.90;;;7.80;;
76795;SDS011;65745;50.278;18.192;2023-11-21T04:53:15;9.50;;;6.80;;
76795;SDS011;65745;50.278;18.192;2023-11-21T04:55:47;8.90;;;6.50;;
76795;SDS011;65745;50.278;18.192;2023-11-21T04:58:19;8.30;;;6.60;;
76795;SDS011;65745;50.278;18.192;2023-11-21T05:00:51;9.20;;;6.50;;
76795;SDS011;65745;50.278;18.192;2023-11-21T05:03:23;10.50;;;7.80;;
76795;SDS011;65745;50.278;18.192;2023-11-21T05:05:55;10.70;;;7.00;;
76795;SDS011;65745;50.278;18.192;2023-11-21T05:08:28;10.20;;;7.50;;
76795;SDS011;65745;50.278;18.192;2023-11-21T05:11:00;10.70;;;8.70;;
76795;SDS011;65745;50.278;18.192;2023-11-21T05:13:33;10.10;;;8.50;;
76795;SDS011;65745;50.278;18.192;2023-11-21T05:16:05;10.70;;;8.10;;
76795;SDS011;65745;50.278;18.192;2023-11-21T05:18:38;11.80;;;8.50;;
76795;SDS011;65745;50.278;18.192;2023-11-21T05:21:10;15.10;;;10.70;;
76795;SDS011;65745;50.278;18.192;2023-11-21T05:23:42;16.00;;;10.30;;
76795;SDS011;65745;50.278;18.192;2023-11-21T05:26:14;13.00;;;9.00;;
76795;SDS011;65745;50.278;18.192;2023-11-21T05:28:46;11.00;;;6.90;;
76795;SDS011;65745;50.278;18.192;2023-11-21T05:31:19;11.10;;;8.20;;
76795;SDS011;65745;50.278;18.192;2023-11-21T05:33:51;10.00;;;8.60;;
76795;SDS011;65745;50.278;18.192;2023-11-21T05:36:23;11.60;;;8.10;;
76795;SDS011;65745;50.278;18.192;2023-11-21T05:38:55;11.50;;;8.10;;
76795;SDS011;65745;50.278;18.192;2023-11-21T05:41:27;10.50;;;8.20;;
76795;SDS011;65745;50.278;18.192;2023-11-21T05:43:59;9.90;;;7.40;;
76795;SDS011;65745;50.278;18.192;2023-11-21T05:46:31;11.90;;;7.50;;
76795;SDS011;65745;50.278;18.192;2023-11-21T05:49:03;10.50;;;7.60;;
76795;SDS011;65745;50.278;18.192;2023-11-21T05:51:37;11.20;;;7.70;;
76795;SDS011;65745;50.278;18.192;2023-11-21T05:54:09;11.40;;;8.30;;
76795;SDS011;65745;50.278;18.192;2023-11-21T05:56:41;11.80;;;9.70;;
76795;SDS011;65745;50.278;18.192;2023-11-21T05:59:13;11.70;;;8.50;;
76795;SDS011;65745;50.278;18.192;2023-11-21T06:01:45;11.90;;;8.60;;
76795;SDS011;65745;50.278;18.192;2023-11-21T06:04:17;10.80;;;8.10;;
76795;SDS011;65745;50.278;18.192;2023-11-21T06:09:23;12.90;;;8.00;;
76795;SDS011;65745;50.278;18.192;2023-11-21T06:11:56;12.50;;;8.60;;
76795;SDS011;65745;50.278;18.192;2023-11-21T06:14:28;15.10;;;10.60;;
76795;SDS011;65745;50.278;18.192;2023-11-21T06:17:02;12.50;;;9.50;;
76795;SDS011;65745;50.278;18.192;2023-11-21T06:19:35;16.10;;;9.90;;
76795;SDS011;65745;50.278;18.192;2023-11-21T06:22:07;16.60;;;10.50;;
76795;SDS011;65745;50.278;18.192;2023-11-21T06:24:39;14.60;;;9.50;;
76795;SDS011;65745;50.278;18.192;2023-11-21T06:27:11;12.60;;;9.50;;
76795;SDS011;65745;50.278;18.192;2023-11-21T06:29:45;12.90;;;10.10;;
76795;SDS011;65745;50.278;18.192;2023-11-21T06:32:17;12.90;;;9.60;;
76795;SDS011;65745;50.278;18.192;2023-11-21T06:34:50;18.00;;;10.70;;
76795;SDS011;65745;50.278;18.192;2023-11-21T06:37:23;17.00;;;10.50;;
76795;SDS011;65745;50.278;18.192;2023-11-21T06:39:56;27.20;;;13.70;;
76795;SDS011;65745;50.278;18.192;2023-11-21T06:42:30;44.40;;;20.90;;
76795;SDS011;65745;50.278;18.192;2023-11-21T06:45:02;43.90;;;19.20;;
76795;SDS011;65745;50.278;18.192;2023-11-21T06:47:37;50.30;;;23.70;;
76795;SDS011;65745;50.278;18.192;2023-11-21T06:50:10;26.10;;;15.40;;
76795;SDS011;65745;50.278;18.192;2023-11-21T06:52:42;28.50;;;15.90;;
76795;SDS011;65745;50.278;18.192;2023-11-21T06:55:15;19.20;;;12.10;;
76795;SDS011;65745;50.278;18.192;2023-11-21T06:57:47;20.30;;;11.70;;
76795;SDS011;65745;50.278;18.192;2023-11-21T07:00:19;20.10;;;12.40;;
76795;SDS011;65745;50.278;18.192;2023-11-21T07:02:51;19.00;;;12.20;;
76795;SDS011;65745;50.278;18.192;2023-11-21T07:05:23;16.20;;;10.40;;
76795;SDS011;65745;50.278;18.192;2023-11-21T07:07:55;14.50;;;9.70;;
76795;SDS011;65745;50.278;18.192;2023-11-21T07:10:33;15.70;;;10.30;;
76795;SDS011;65745;50.278;18.192;2023-11-21T07:13:09;13.70;;;10.40;;
76795;SDS011;65745;50.278;18.192;2023-11-21T07:15:41;15.10;;;9.60;;
76795;SDS011;65745;50.278;18.192;2023-11-21T07:18:13;14.60;;;9.90;;
76795;SDS011;65745;50.278;18.192;2023-11-21T07:20:47;12.60;;;9.30;;
76795;SDS011;65745;50.278;18.192;2023-11-21T07:23:19;15.40;;;9.20;;
76795;SDS011;65745;50.278;18.192;2023-11-21T07:25:52;14.30;;;9.10;;
76795;SDS011;65745;50.278;18.192;2023-11-21T07:28:24;17.70;;;9.80;;
76795;SDS011;65745;50.278;18.192;2023-11-21T07:30:56;12.00;;;9.10;;
76795;SDS011;65745;50.278;18.192;2023-11-21T07:33:29;15.80;;;9.90;;
76795;SDS011;65745;50.278;18.192;2023-11-21T07:36:01;12.20;;;8.80;;
76795;SDS011;65745;50.278;18.192;2023-11-21T07:38:33;10.80;;;9.00;;
76795;SDS011;65745;50.278;18.192;2023-11-21T07:41:06;13.70;;;8.90;;
76795;SDS011;65745;50.278;18.192;2023-11-21T07:43:54;11.50;;;8.50;;
76795;SDS011;65745;50.278;18.192;2023-11-21T07:46:27;11.60;;;6.90;;
76795;SDS011;65745;50.278;18.192;2023-11-21T07:48:59;10.00;;;6.60;;
76795;SDS011;65745;50.278;18.192;2023-11-21T07:51:32;10.40;;;6.90;;
76795;SDS011;65745;50.278;18.192;2023-11-21T07:54:04;8.60;;;5.70;;
76795;SDS011;65745;50.278;18.192;2023-11-21T07:56:37;10.80;;;6.30;;
76795;SDS011;65745;50.278;18.192;2023-11-21T07:59:09;12.20;;;7.50;;
76795;SDS011;65745;50.278;18.192;2023-11-21T08:01:41;9.20;;;6.30;;
76795;SDS011;65745;50.278;18.192;2023-11-21T08:04:15;9.30;;;6.70;;
76795;SDS011;65745;50.278;18.192;2023-11-21T08:06:48;8.60;;;5.90;;
76795;SDS011;65745;50.278;18.192;2023-11-21T08:09:20;8.10;;;6.50;;
76795;SDS011;65745;50.278;18.192;2023-11-21T08:11:52;8.00;;;5.60;;
76795;SDS011;65745;50.278;18.192;2023-11-21T08:14:25;11.90;;;7.20;;
76795;SDS011;65745;50.278;18.192;2023-11-21T08:16:57;9.40;;;7.00;;
76795;SDS011;65745;50.278;18.192;2023-11-21T08:19:30;9.60;;;7.30;;
76795;SDS011;65745;50.278;18.192;2023-11-21T08:22:03;10.30;;;6.50;;
76795;SDS011;65745;50.278;18.192;2023-11-21T08:24:37;10.60;;;7.30;;
76795;SDS011;65745;50.278;18.192;2023-11-21T08:27:09;11.00;;;6.80;;
76795;SDS011;65745;50.278;18.192;2023-11-21T08:29:41;8.20;;;5.90;;
76795;SDS011;65745;50.278;18.192;2023-11-21T08:32:13;7.40;;;5.80;;
76795;SDS011;65745;50.278;18.192;2023-11-21T08:34:45;7.50;;;5.20;;
76795;SDS011;65745;50.278;18.192;2023-11-21T08:39:53;8.00;;;6.40;;
76795;SDS011;65745;50.278;18.192;2023-11-21T08:42:25;7.70;;;5.90;;
76795;SDS011;65745;50.278;18.192;2023-11-21T08:44:59;11.40;;;6.80;;
76795;SDS011;65745;50.278;18.192;2023-11-21T08:47:31;8.60;;;6.10;;
76795;SDS011;65745;50.278;18.192;2023-11-21T08:50:04;16.80;;;10.00;;
76795;SDS011;65745;50.278;18.192;2023-11-21T08:52:39;8.70;;;5.60;;
76795;SDS011;65745;50.278;18.192;2023-11-21T08:55:11;10.70;;;6.00;;
76795;SDS011;65745;50.278;18.192;2023-11-21T08:57:44;7.80;;;5.80;;
76795;SDS011;65745;50.278;18.192;2023-11-21T09:00:17;21.40;;;15.00;;
76795;SDS011;65745;50.278;18.192;2023-11-21T09:02:50;21.10;;;18.90;;
76795;SDS011;65745;50.278;18.192;2023-11-21T09:05:23;10.80;;;6.60;;
76795;SDS011;65745;50.278;18.192;2023-11-21T09:07:55;10.10;;;6.00;;
76795;SDS011;65745;50.278;18.192;2023-11-21T09:10:29;5.50;;;4.30;;
76795;SDS011;65745;50.278;18.192;2023-11-21T09:13:01;7.20;;;4.60;;
76795;SDS011;65745;50.278;18.192;2023-11-21T09:15:33;7.30;;;5.00;;
76795;SDS011;65745;50.278;18.192;2023-11-21T09:18:05;4.80;;;3.60;;
76795;SDS011;65745;50.278;18.192;2023-11-21T09:20:38;5.10;;;3.80;;
76795;SDS011;65745;50.278;18.192;2023-11-21T09:23:10;6.80;;;4.00;;
76795;SDS011;65745;50.278;18.192;2023-11-21T09:25:42;4.50;;;2.90;;
76795;SDS011;65745;50.278;18.192;2023-11-21T09:28:17;4.50;;;3.40;;
76795;SDS011;65745;50.278;18.192;2023-11-21T09:30:49;4.80;;;3.00;;
76795;SDS011;65745;50.278;18.192;2023-11-21T09:33:22;5.10;;;3.60;;
76795;SDS011;65745;50.278;18.192;2023-11-21T09:35:54;3.80;;;2.50;;
76795;SDS011;65745;50.278;18.192;2023-11-21T09:38:26;4.40;;;3.00;;
76795;SDS011;65745;50.278;18.192;2023-11-21T09:40:59;6.10;;;3.60;;
76795;SDS011;65745;50.278;18.192;2023-11-21T09:43:35;7.10;;;4.20;;
76795;SDS011;65745;50.278;18.192;2023-11-21T09:46:09;5.60;;;3.80;;
76795;SDS011;65745;50.278;18.192;2023-11-21T09:48:50;6.00;;;4.20;;
76795;SDS011;65745;50.278;18.192;2023-11-21T09:51:23;5.80;;;3.90;;
76795;SDS011;65745;50.278;18.192;2023-11-21T09:53:59;6.50;;;4.70;;
76795;SDS011;65745;50.278;18.192;2023-11-21T09:56:38;7.90;;;7.10;;
76795;SDS011;65745;50.278;18.192;2023-11-21T09:59:13;8.80;;;3.90;;
76795;SDS011;65745;50.278;18.192;2023-11-21T10:01:45;5.50;;;3.10;;
76795;SDS011;65745;50.278;18.192;2023-11-21T10:04:19;4.80;;;2.80;;
76795;SDS011;65745;50.278;18.192;2023-11-21T10:06:51;5.40;;;3.10;;
76795;SDS011;65745;50.278;18.192;2023-11-21T10:09:25;4.60;;;2.70;;
76795;SDS011;65745;50.278;18.192;2023-11-21T10:11:58;3.40;;;2.10;;
76795;SDS011;65745;50.278;18.192;2023-11-21T10:14:32;3.00;;;1.70;;
76795;SDS011;65745;50.278;18.192;2023-11-21T10:17:05;4.10;;;2.20;;
76795;SDS011;65745;50.278;18.192;2023-11-21T10:19:38;3.50;;;1.90;;
76795;SDS011;65745;50.278;18.192;2023-11-21T10:22:10;4.90;;;2.60;;
76795;SDS011;65745;50.278;18.192;2023-11-21T10:24:44;19.10;;;8.60;;
76795;SDS011;65745;50.278;18.192;2023-11-21T10:27:22;8.50;;;4.60;;
76795;SDS011;65745;50.278;18.192;2023-11-21T10:29:56;6.80;;;4.40;;
76795;SDS011;65745;50.278;18.192;2023-11-21T10:32:32;4.50;;;2.80;;
76795;SDS011;65745;50.278;18.192;2023-11-21T10:35:04;4.60;;;3.00;;
76795;SDS011;65745;50.278;18.192;2023-11-21T10:37:39;4.60;;;3.00;;
76795;SDS011;65745;50.278;18.192;2023-11-21T10:40:12;5.20;;;3.30;;
76795;SDS011;65745;50.278;18.192;2023-11-21T10:42:44;5.60;;;3.40;;
76795;SDS011;65745;50.278;18.192;2023-11-21T10:45:16;5.80;;;4.00;;
76795;SDS011;65745;50.278;18.192;2023-11-21T10:47:49;6.80;;;3.90;;
76795;SDS011;65745;50.278;18.192;2023-11-21T10:50:23;6.00;;;3.50;;
76795;SDS011;65745;50.278;18.192;2023-11-21T10:52:55;3.80;;;2.70;;
76795;SDS011;65745;50.278;18.192;2023-11-21T10:55:27;6.40;;;3.70;;
76795;SDS011;65745;50.278;18.192;2023-11-21T10:58:01;15.70;;;8.20;;
76795;SDS011;65745;50.278;18.192;2023-11-21T11:00:34;6.90;;;3.50;;
76795;SDS011;65745;50.278;18.192;2023-11-21T11:03:09;13.10;;;8.90;;
76795;SDS011;65745;50.278;18.192;2023-11-21T11:05:45;5.00;;;3.30;;
76795;SDS011;65745;50.278;18.192;2023-11-21T11:08:22;12.10;;;5.80;;
76795;SDS011;65745;50.278;18.192;2023-11-21T11:10:57;6.00;;;3.10;;
76795;SDS011;65745;50.278;18.192;2023-11-21T11:13:29;3.40;;;1.90;;
76795;SDS011;65745;50.278;18.192;2023-11-21T11:16:01;8.60;;;3.40;;
76795;SDS011;65745;50.278;18.192;2023-11-21T11:18:37;4.80;;;2.50;;
76795;SDS011;65745;50.278;18.192;2023-11-21T11:21:11;3.40;;;2.20;;
76795;SDS011;65745;50.278;18.192;2023-11-21T11:23:58;4.90;;;2.30;;
76795;SDS011;65745;50.278;18.192;2023-11-21T11:26:46;3.00;;;1.50;;
76795;SDS011;65745;50.278;18.192;2023-11-21T11:29:27;4.00;;;2.20;;
76795;SDS011;65745;50.278;18.192;2023-11-21T11:32:09;2.60;;;1.60;;
76795;SDS011;65745;50.278;18.192;2023-11-21T11:34:53;19.40;;;14.30;;
76795;SDS011;65745;50.278;18.192;2023-11-21T11:37:31;5.60;;;4.30;;
76795;SDS011;65745;50.278;18.192;2023-11-21T11:40:06;5.90;;;4.10;;
76795;SDS011;65745;50.278;18.192;2023-11-21T11:42:41;3.30;;;1.90;;
76795;SDS011;65745;50.278;18.192;2023-11-21T11:45:33;4.00;;;2.30;;
76795;SDS011;65745;50.278;18.192;2023-11-21T11:48:12;2.30;;;2.10;;
76795;SDS011;65745;50.278;18.192;2023-11-21T11:53:35;3.90;;;2.20;;
76795;SDS011;65745;50.278;18.192;2023-11-21T11:56:21;5.50;;;2.90;;
76795;SDS011;65745;50.278;18.192;2023-11-21T11:59:00;3.60;;;2.60;;
76795;SDS011;65745;50.278;18.192;2023-11-21T12:01:33;3.70;;;2.60;;
76795;SDS011;65745;50.278;18.192;2023-11-21T12:04:24;5.90;;;4.20;;
76795;SDS011;65745;50.278;18.192;2023-11-21T12:07:04;6.50;;;3.40;;
76795;SDS011;65745;50.278;18.192;2023-11-21T12:09:37;6.40;;;4.30;;
76795;SDS011;65745;50.278;18.192;2023-11-21T12:12:09;6.10;;;3.70;;
76795;SDS011;65745;50.278;18.192;2023-11-21T12:14:41;2.70;;;2.20;;
76795;SDS011;65745;50.278;18.192;2023-11-21T12:17:14;4.50;;;2.40;;
76795;SDS011;65745;50.278;18.192;2023-11-21T12:19:47;3.20;;;2.30;;
76795;SDS011;65745;50.278;18.192;2023-11-21T12:22:21;5.30;;;2.90;;
76795;SDS011;65745;50.278;18.192;2023-11-21T12:24:54;6.70;;;3.40;;
76795;SDS011;65745;50.278;18.192;2023-11-21T12:27:27;5.70;;;3.40;;
76795;SDS011;65745;50.278;18.192;2023-11-21T12:30:00;5.60;;;3.50;;
76795;SDS011;65745;50.278;18.192;2023-11-21T12:32:32;7.10;;;3.20;;
76795;SDS011;65745;50.278;18.192;2023-11-21T12:35:07;4.20;;;2.70;;
76795;SDS011;65745;50.278;18.192;2023-11-21T12:37:40;5.00;;;3.30;;
76795;SDS011;65745;50.278;18.192;2023-11-21T12:40:14;4.50;;;2.90;;
76795;SDS011;65745;50.278;18.192;2023-11-21T12:42:46;3.40;;;2.50;;
76795;SDS011;65745;50.278;18.192;2023-11-21T12:45:22;5.50;;;3.50;;
76795;SDS011;65745;50.278;18.192;2023-11-21T12:47:57;5.60;;;2.90;;
76795;SDS011;65745;50.278;18.192;2023-11-21T12:50:33;5.80;;;3.30;;
76795;SDS011;65745;50.278;18.192;2023-11-21T12:53:07;6.90;;;3.30;;
76795;SDS011;65745;50.278;18.192;2023-11-21T12:55:43;6.10;;;3.30;;
76795;SDS011;65745;50.278;18.192;2023-11-21T12:58:20;6.00;;;3.10;;
76795;SDS011;65745;50.278;18.192;2023-11-21T13:00:55;4.80;;;2.90;;
76795;SDS011;65745;50.278;18.192;2023-11-21T13:03:29;7.00;;;3.50;;
76795;SDS011;65745;50.278;18.192;2023-11-21T13:06:02;3.60;;;2.20;;
76795;SDS011;65745;50.278;18.192;2023-11-21T13:08:36;5.60;;;3.30;;
76795;SDS011;65745;50.278;18.192;2023-11-21T13:11:09;6.10;;;3.00;;
76795;SDS011;65745;50.278;18.192;2023-11-21T13:13:43;6.20;;;2.40;;
76795;SDS011;65745;50.278;18.192;2023-11-21T13:16:16;5.90;;;3.40;;
76795;SDS011;65745;50.278;18.192;2023-11-21T13:18:50;6.10;;;2.70;;
76795;SDS011;65745;50.278;18.192;2023-11-21T13:21:22;6.20;;;3.40;;
76795;SDS011;65745;50.278;18.192;2023-11-21T13:23:55;6.10;;;3.30;;
76795;SDS011;65745;50.278;18.192;2023-11-21T13:26:27;39.10;;;17.00;;
76795;SDS011;65745;50.278;18.192;2023-11-21T13:29:00;118.80;;;44.50;;
76795;SDS011;65745;50.278;18.192;2023-11-21T13:31:34;132.30;;;47.60;;
76795;SDS011;65745;50.278;18.192;2023-11-21T13:34:08;108.00;;;38.90;;
76795;SDS011;65745;50.278;18.192;2023-11-21T13:36:49;21.10;;;11.50;;
76795;SDS011;65745;50.278;18.192;2023-11-21T13:39:27;16.70;;;9.50;;
76795;SDS011;65745;50.278;18.192;2023-11-21T13:42:01;11.30;;;8.10;;
76795;SDS011;65745;50.278;18.192;2023-11-21T13:44:35;12.10;;;7.30;;
76795;SDS011;65745;50.278;18.192;2023-11-21T13:47:13;9.90;;;7.30;;
76795;SDS011;65745;50.278;18.192;2023-11-21T13:49:45;12.00;;;8.10;;
76795;SDS011;65745;50.278;18.192;2023-11-21T13:52:18;6.80;;;4.90;;
76795;SDS011;65745;50.278;18.192;2023-11-21T13:54:55;7.50;;;4.70;;
76795;SDS011;65745;50.278;18.192;2023-11-21T13:57:28;5.80;;;4.70;;
76795;SDS011;65745;50.278;18.192;2023-11-21T14:00:03;8.20;;;6.00;;
76795;SDS011;65745;50.278;18.192;2023-11-21T14:02:40;10.70;;;7.40;;
76795;SDS011;65745;50.278;18.192;2023-11-21T14:05:13;8.20;;;5.90;;
76795;SDS011;65745;50.278;18.192;2023-11-21T14:07:50;6.40;;;5.50;;
76795;SDS011;65745;50.278;18.192;2023-11-21T14:10:22;6.00;;;4.80;;
76795;SDS011;65745;50.278;18.192;2023-11-21T14:12:55;8.50;;;5.80;;
76795;SDS011;65745;50.278;18.192;2023-11-21T14:15:27;7.50;;;4.80;;
76795;SDS011;65745;50.278;18.192;2023-11-21T14:18:02;7.20;;;4.90;;
76795;SDS011;65745;50.278;18.192;2023-11-21T14:20:37;6.20;;;4.40;;
76795;SDS011;65745;50.278;18.192;2023-11-21T14:23:11;7.80;;;4.90;;
76795;SDS011;65745;50.278;18.192;2023-11-21T14:25:44;6.80;;;4.20;;
76795;SDS011;65745;50.278;18.192;2023-11-21T14:28:17;7.10;;;4.00;;
76795;SDS011;65745;50.278;18.192;2023-11-21T14:30:49;8.00;;;5.10;;
76795;SDS011;65745;50.278;18.192;2023-11-21T14:33:21;10.40;;;5.60;;
76795;SDS011;65745;50.278;18.192;2023-11-21T14:35:54;11.00;;;6.10;;
76795;SDS011;65745;50.278;18.192;2023-11-21T14:38:27;15.70;;;7.20;;
76795;SDS011;65745;50.278;18.192;2023-11-21T14:40:59;9.90;;;5.50;;
76795;SDS011;65745;50.278;18.192;2023-11-21T14:43:31;8.90;;;5.80;;
76795;SDS011;65745;50.278;18.192;2023-11-21T14:46:05;9.30;;;5.60;;
76795;SDS011;65745;50.278;18.192;2023-11-21T14:48:43;7.90;;;6.60;;
76795;SDS011;65745;50.278;18.192;2023-11-21T14:51:24;11.20;;;8.70;;
76795;SDS011;65745;50.278;18.192;2023-11-21T14:54:00;10.20;;;7.60;;
76795;SDS011;65745;50.278;18.192;2023-11-21T14:59:08;22.60;;;16.90;;
76795;SDS011;65745;50.278;18.192;2023-11-21T15:01:45;36.70;;;19.90;;
76795;SDS011;65745;50.278;18.192;2023-11-21T15:04:24;27.10;;;14.40;;
76795;SDS011;65745;50.278;18.192;2023-11-21T15:07:05;39.20;;;19.90;;
76795;SDS011;65745;50.278;18.192;2023-11-21T15:09:40;41.20;;;21.10;;
76795;SDS011;65745;50.278;18.192;2023-11-21T15:12:14;50.90;;;21.30;;
76795;SDS011;65745;50.278;18.192;2023-11-21T15:14:49;43.40;;;20.20;;